createdAt,value
2019-02-24T00:00:11.748Z,-3.40
2019-02-24T00:02:39.256Z,-3.40
2019-02-24T00:05:06.833Z,-3.40
2019-02-24T00:07:34.477Z,-3.40
2019-02-24T00:10:01.991Z,-3.40
2019-02-24T00:12:29.502Z,-3.40
2019-02-24T00:14:57.018Z,-3.40
2019-02-24T00:17:24.528Z,-3.40
2019-02-24T00:19:52.042Z,-3.40
2019-02-24T00:22:19.618Z,-3.40
2019-02-24T00:25:15.359Z,-3.40
2019-02-24T00:27:45.597Z,-3.40
2019-02-24T00:30:14.846Z,-3.30
2019-02-24T00:32:44.397Z,-3.30
2019-02-24T00:35:12.123Z,-3.30
2019-02-24T00:37:39.737Z,-3.30
2019-02-24T00:40:09.057Z,-3.30
2019-02-24T00:42:36.511Z,-3.30
2019-02-24T00:45:04.170Z,-3.30
2019-02-24T00:47:31.701Z,-3.30
2019-02-24T00:49:59.224Z,-3.40
2019-02-24T00:52:26.794Z,-3.40
2019-02-24T00:54:54.307Z,-3.50
2019-02-24T00:57:22.056Z,-3.50
2019-02-24T00:59:49.568Z,-3.50
2019-02-24T01:02:16.982Z,-3.50
2019-02-24T01:04:44.567Z,-3.50
2019-02-24T01:07:16.868Z,-3.50
2019-02-24T01:09:44.361Z,-3.50
2019-02-24T01:12:11.878Z,-3.50
2019-02-24T01:14:39.413Z,-3.50
2019-02-24T01:17:07.210Z,-3.50
2019-02-24T01:19:34.769Z,-3.50
2019-02-24T01:22:02.319Z,-3.40
2019-02-24T01:24:29.833Z,-3.40
2019-02-24T01:26:57.296Z,-3.40
2019-02-24T01:29:24.874Z,-3.30
2019-02-24T01:31:52.455Z,-3.30
2019-02-24T01:34:19.984Z,-3.30
2019-02-24T01:36:47.705Z,-3.30
2019-02-24T01:39:15.559Z,-3.20
2019-02-24T01:41:43.027Z,-3.20
2019-02-24T01:44:10.503Z,-3.30
2019-02-24T01:46:38.015Z,-3.30
2019-02-24T01:49:05.515Z,-3.30
2019-02-24T01:51:33.039Z,-3.20
2019-02-24T01:54:00.598Z,-3.30
2019-02-24T01:56:28.568Z,-3.30
2019-02-24T01:58:56.112Z,-3.30
2019-02-24T02:01:23.807Z,-3.20
2019-02-24T02:03:51.276Z,-3.30
2019-02-24T02:06:18.773Z,-3.30
2019-02-24T02:08:46.272Z,-3.30
2019-02-24T02:11:13.795Z,-3.30
2019-02-24T02:13:41.303Z,-3.30
2019-02-24T02:16:08.826Z,-2.90
2019-02-24T02:18:36.296Z,-3.40
2019-02-24T02:21:03.848Z,-3.40
2019-02-24T02:23:31.394Z,-3.50
2019-02-24T02:25:58.862Z,-3.50
2019-02-24T02:28:26.371Z,-3.50
2019-02-24T02:30:53.925Z,-3.50
2019-02-24T02:33:21.380Z,-3.40
2019-02-24T02:35:48.853Z,-3.50
2019-02-24T02:38:16.368Z,-3.50
2019-02-24T02:40:43.866Z,-3.50
2019-02-24T02:43:11.352Z,-3.50
2019-02-24T02:45:38.902Z,-3.60
2019-02-24T02:48:06.434Z,-3.50
2019-02-24T02:50:33.911Z,-3.50
2019-02-24T02:53:01.418Z,-3.50
2019-02-24T02:55:28.930Z,-3.20
2019-02-24T02:57:56.445Z,-3.40
2019-02-24T03:00:32.025Z,-3.40
2019-02-24T03:02:59.539Z,-3.40
2019-02-24T03:05:27.146Z,-3.30
2019-02-24T03:08:01.764Z,-3.30
2019-02-24T03:10:29.264Z,-3.30
2019-02-24T03:12:56.755Z,-2.30
2019-02-24T03:15:24.274Z,-2.80
2019-02-24T03:17:51.780Z,-3.40
2019-02-24T03:20:19.276Z,-3.40
2019-02-24T03:22:46.805Z,-3.40
2019-02-24T03:25:14.311Z,-3.40
2019-02-24T03:27:41.879Z,-3.40
2019-02-24T03:30:09.372Z,-3.50
2019-02-24T03:32:36.975Z,-3.40
2019-02-24T03:35:04.536Z,-3.50
2019-02-24T03:37:32.065Z,-3.50
2019-02-24T03:39:59.562Z,-3.60
2019-02-24T03:42:27.046Z,-3.50
2019-02-24T03:44:54.586Z,-3.00
2019-02-24T03:47:22.082Z,-3.50
2019-02-24T03:49:49.604Z,-3.40
2019-02-24T03:52:17.231Z,-3.10
2019-02-24T03:54:45.053Z,-3.40
2019-02-24T03:57:12.544Z,-3.40
2019-02-24T03:59:40.003Z,-3.30
2019-02-24T04:02:07.550Z,-3.30
2019-02-24T04:04:38.212Z,-3.30
2019-02-24T04:07:05.722Z,-3.30
2019-02-24T04:09:33.197Z,-3.30
2019-02-24T04:12:00.680Z,-3.30
2019-02-24T04:14:28.194Z,-3.30
2019-02-24T04:16:55.723Z,-3.20
2019-02-24T04:19:23.192Z,-3.30
2019-02-24T04:21:50.900Z,-3.30
2019-02-24T04:24:18.396Z,-3.30
2019-02-24T04:26:45.882Z,-3.40
2019-02-24T04:29:13.392Z,-3.40
2019-02-24T04:31:40.864Z,-3.40
2019-02-24T04:34:08.327Z,-3.50
2019-02-24T04:36:35.838Z,-3.50
2019-02-24T04:39:03.631Z,-3.50
2019-02-24T04:41:31.092Z,-3.50
2019-02-24T04:43:58.610Z,-3.50
2019-02-24T04:46:26.154Z,-3.50
2019-02-24T04:48:53.597Z,-3.50
2019-02-24T04:51:21.091Z,-3.50
2019-02-24T04:53:48.588Z,-3.50
2019-02-24T04:56:16.104Z,-3.50
2019-02-24T04:58:43.540Z,-3.40
2019-02-24T05:01:11.010Z,-3.50
2019-02-24T05:03:38.540Z,-3.50
2019-02-24T05:06:06.069Z,-3.60
2019-02-24T05:08:33.583Z,-3.60
2019-02-24T05:11:01.047Z,-3.60
2019-02-24T05:13:28.585Z,-3.60
2019-02-24T05:15:56.057Z,-3.70
2019-02-24T05:18:23.547Z,-3.70
2019-02-24T05:20:51.048Z,-3.70
2019-02-24T05:23:18.499Z,-3.70
2019-02-24T05:25:45.906Z,-3.10
2019-02-24T05:28:13.389Z,-3.70
2019-02-24T05:30:40.867Z,-3.80
2019-02-24T05:33:08.364Z,-3.80
2019-02-24T05:35:35.848Z,-3.80
2019-02-24T05:38:03.565Z,-3.90
2019-02-24T05:40:31.088Z,-3.90
2019-02-24T05:42:58.568Z,-4.00
2019-02-24T05:45:26.088Z,-3.90
2019-02-24T05:47:53.570Z,-4.00
2019-02-24T05:50:21.087Z,-4.00
2019-02-24T05:52:48.572Z,-4.00
2019-02-24T05:55:16.090Z,-4.00
2019-02-24T05:57:43.571Z,-4.10
2019-02-24T06:00:11.050Z,-4.10
2019-02-24T06:02:38.565Z,-4.10
2019-02-24T06:05:06.278Z,-4.10
2019-02-24T06:07:33.790Z,-4.10
2019-02-24T06:10:01.290Z,-4.10
2019-02-24T06:12:28.814Z,-4.10
2019-02-24T06:14:56.284Z,-4.10
2019-02-24T06:17:23.797Z,-4.00
2019-02-24T06:19:51.311Z,-4.00
2019-02-24T06:22:18.812Z,-3.90
2019-02-24T06:24:46.330Z,-4.00
2019-02-24T06:27:13.851Z,-3.90
2019-02-24T06:29:41.359Z,-3.90
2019-02-24T06:32:08.904Z,-3.80
2019-02-24T06:34:37.033Z,-3.80
2019-02-24T06:37:04.537Z,-3.70
2019-02-24T06:39:32.081Z,-2.80
2019-02-24T06:41:59.567Z,-3.70
2019-02-24T06:44:27.075Z,-3.60
2019-02-24T06:46:58.268Z,-3.40
2019-02-24T06:49:25.847Z,-3.30
2019-02-24T06:51:53.434Z,-3.20
2019-02-24T06:54:20.958Z,-3.10
2019-02-24T06:56:48.514Z,-3.00
2019-02-24T06:59:16.100Z,-2.80
2019-02-24T07:01:43.636Z,-2.70
2019-02-24T07:04:11.114Z,-2.50
2019-02-24T07:06:38.561Z,-2.40
2019-02-24T07:09:06.808Z,-2.40
2019-02-24T07:11:34.332Z,-2.30
2019-02-24T07:14:01.831Z,-2.20
2019-02-24T07:16:29.312Z,-2.20
2019-02-24T07:18:56.837Z,-2.00
2019-02-24T07:21:24.348Z,-1.90
2019-02-24T07:23:51.830Z,-1.80
2019-02-24T07:26:19.354Z,-1.80
2019-02-24T07:28:46.847Z,-1.60
2019-02-24T07:31:14.326Z,-0.90
2019-02-24T07:33:41.848Z,0.10
2019-02-24T07:36:09.336Z,1.10
2019-02-24T07:38:36.797Z,2.10
2019-02-24T07:41:04.599Z,3.00
2019-02-24T07:43:32.067Z,4.10
2019-02-24T07:45:59.550Z,5.50
2019-02-24T07:48:27.078Z,6.50
2019-02-24T07:50:54.767Z,6.70
2019-02-24T07:53:22.253Z,7.30
2019-02-24T07:55:49.710Z,8.10
2019-02-24T07:58:17.415Z,8.40
2019-02-24T08:00:44.864Z,8.50
2019-02-24T08:03:12.355Z,8.10
2019-02-24T08:05:39.900Z,8.90
2019-02-24T08:08:16.074Z,8.90
2019-02-24T08:10:36.982Z,10.00
2019-02-24T08:13:04.475Z,8.80
2019-02-24T08:15:31.982Z,8.70
2019-02-24T08:17:59.531Z,9.00
2019-02-24T08:20:27.052Z,8.60
2019-02-24T08:22:54.528Z,9.00
2019-02-24T08:25:22.111Z,8.80
2019-02-24T08:27:49.588Z,8.90
2019-02-24T08:30:17.123Z,9.20
2019-02-24T08:32:44.621Z,10.00
2019-02-24T08:35:12.113Z,10.60
2019-02-24T08:37:39.916Z,11.20
2019-02-24T08:40:07.413Z,11.20
2019-02-24T08:42:34.986Z,11.60
2019-02-24T08:45:03.056Z,11.30
2019-02-24T08:47:30.547Z,10.70
2019-02-24T08:49:58.040Z,9.70
2019-02-24T08:52:27.658Z,9.60
2019-02-24T08:54:55.135Z,10.10
2019-02-24T08:57:22.720Z,10.40
2019-02-24T08:59:50.294Z,10.70
2019-02-24T09:02:17.763Z,10.60
2019-02-24T09:04:45.292Z,11.30
2019-02-24T09:07:12.821Z,10.80
2019-02-24T09:09:40.908Z,11.00
2019-02-24T09:12:08.399Z,11.40
2019-02-24T09:14:35.877Z,11.10
2019-02-24T09:17:04.003Z,10.20
2019-02-24T09:19:31.572Z,9.50
2019-02-24T09:21:59.151Z,9.30
2019-02-24T09:24:26.954Z,9.50
2019-02-24T09:26:54.428Z,9.60
2019-02-24T09:29:21.963Z,9.20
2019-02-24T09:31:49.436Z,7.90
2019-02-24T09:34:16.938Z,10.00
2019-02-24T09:36:44.513Z,10.60
2019-02-24T09:39:11.995Z,10.40
2019-02-24T09:41:39.493Z,9.60
2019-02-24T09:44:07.012Z,9.00
2019-02-24T09:46:34.490Z,8.30
2019-02-24T09:49:01.985Z,7.40
2019-02-24T09:51:29.532Z,7.20
2019-02-24T09:53:57.031Z,7.00
2019-02-24T09:56:24.521Z,6.80
2019-02-24T09:58:52.474Z,6.60
2019-02-24T10:01:19.935Z,6.50
2019-02-24T10:03:47.503Z,6.50
2019-02-24T10:06:15.129Z,6.40
2019-02-24T10:08:42.699Z,6.30
2019-02-24T10:11:10.205Z,6.20
2019-02-24T10:13:37.688Z,6.40
2019-02-24T10:16:05.302Z,6.40
2019-02-24T10:18:32.749Z,6.40
2019-02-24T10:21:00.295Z,6.40
2019-02-24T10:23:27.856Z,6.40
2019-02-24T10:26:04.584Z,6.30
2019-02-24T10:28:32.066Z,6.20
2019-02-24T10:31:01.524Z,6.10
2019-02-24T10:33:29.260Z,6.10
2019-02-24T10:35:56.755Z,6.00
2019-02-24T10:38:24.273Z,5.90
2019-02-24T10:40:51.869Z,6.10
2019-02-24T10:43:19.289Z,6.10
2019-02-24T10:45:46.804Z,6.10
2019-02-24T10:48:14.490Z,6.20
2019-02-24T10:50:41.921Z,6.20
2019-02-24T10:53:09.447Z,6.20
2019-02-24T10:55:36.976Z,6.10
2019-02-24T10:58:04.432Z,6.20
2019-02-24T11:00:31.936Z,6.30
2019-02-24T11:02:59.507Z,6.40
2019-02-24T11:05:27.020Z,6.50
2019-02-24T11:07:54.514Z,6.70
2019-02-24T11:10:22.006Z,6.70
2019-02-24T11:12:49.828Z,6.60
2019-02-24T11:15:17.366Z,6.70
2019-02-24T11:17:44.847Z,6.70
2019-02-24T11:20:12.359Z,6.70
2019-02-24T11:22:39.855Z,6.70
2019-02-24T11:25:08.099Z,6.70
2019-02-24T11:27:35.670Z,6.60
2019-02-24T11:30:03.437Z,6.60
2019-02-24T11:32:30.949Z,6.60
2019-02-24T11:34:58.510Z,6.50
2019-02-24T11:37:25.949Z,6.50
2019-02-24T11:39:53.422Z,6.50
2019-02-24T11:42:20.903Z,6.40
2019-02-24T11:44:48.358Z,6.40
2019-02-24T11:47:15.855Z,6.40
2019-02-24T11:49:43.343Z,6.30
2019-02-24T11:52:10.857Z,6.30
2019-02-24T11:54:38.353Z,6.40
2019-02-24T11:57:05.894Z,6.40
2019-02-24T11:59:33.732Z,6.40
2019-02-24T12:02:01.198Z,6.30
2019-02-24T12:04:28.647Z,6.30
2019-02-24T12:06:56.160Z,6.30
2019-02-24T12:09:23.670Z,6.40
2019-02-24T12:11:51.205Z,6.40
2019-02-24T12:14:18.744Z,6.30
2019-02-24T12:16:46.224Z,6.30
2019-02-24T12:19:13.754Z,6.50
2019-02-24T12:21:41.337Z,6.80
2019-02-24T12:24:08.876Z,6.70
2019-02-24T12:26:36.354Z,6.70
2019-02-24T12:29:03.887Z,6.70
2019-02-24T12:31:31.413Z,6.70
2019-02-24T12:33:58.941Z,6.70
2019-02-24T12:36:26.430Z,6.70
2019-02-24T12:38:53.919Z,6.80
2019-02-24T12:41:21.396Z,6.80
2019-02-24T12:43:48.942Z,6.90
2019-02-24T12:46:16.474Z,6.80
2019-02-24T12:48:43.970Z,6.70
2019-02-24T12:51:11.507Z,6.70
2019-02-24T12:53:39.054Z,6.60
2019-02-24T12:56:06.624Z,6.60
2019-02-24T12:58:34.359Z,6.70
2019-02-24T13:01:01.850Z,6.80
2019-02-24T13:03:32.468Z,7.00
2019-02-24T13:05:59.935Z,7.00
2019-02-24T13:08:27.400Z,7.20
2019-02-24T13:10:54.884Z,7.30
2019-02-24T13:13:22.698Z,7.40
2019-02-24T13:15:50.173Z,7.40
2019-02-24T13:18:17.667Z,7.60
2019-02-24T13:20:45.177Z,7.70
2019-02-24T13:23:12.676Z,7.60
2019-02-24T13:25:40.158Z,7.70
2019-02-24T13:28:07.657Z,7.70
2019-02-24T13:30:36.156Z,7.90
2019-02-24T13:33:03.736Z,7.90
2019-02-24T13:35:31.195Z,7.90
2019-02-24T13:37:58.698Z,8.00
2019-02-24T13:40:26.192Z,8.20
2019-02-24T13:42:53.672Z,8.40
2019-02-24T13:45:21.337Z,8.50
2019-02-24T13:47:48.820Z,8.80
2019-02-24T13:50:16.300Z,8.80
2019-02-24T13:52:43.798Z,9.10
2019-02-24T13:55:11.292Z,9.10
2019-02-24T13:57:38.783Z,9.40
2019-02-24T14:00:09.550Z,9.20
2019-02-24T14:02:37.026Z,9.60
2019-02-24T14:05:04.520Z,9.90
2019-02-24T14:07:32.018Z,9.80
2019-02-24T14:09:59.533Z,10.00
2019-02-24T14:12:27.006Z,10.20
2019-02-24T14:14:54.533Z,10.20
2019-02-24T14:17:22.000Z,9.70
2019-02-24T14:19:49.529Z,9.70
2019-02-24T14:22:16.985Z,9.50
2019-02-24T14:24:44.484Z,9.60
2019-02-24T14:27:11.997Z,9.40
2019-02-24T14:29:39.484Z,9.40
2019-02-24T14:32:07.012Z,9.60
2019-02-24T14:34:34.488Z,9.50
2019-02-24T14:37:01.974Z,9.60
2019-02-24T14:39:29.470Z,9.50
2019-02-24T14:41:56.965Z,9.40
2019-02-24T14:44:24.439Z,9.40
2019-02-24T14:46:51.943Z,9.30
2019-02-24T14:49:19.414Z,9.20
2019-02-24T14:51:46.892Z,9.20
2019-02-24T14:54:14.385Z,9.00
2019-02-24T14:56:41.923Z,8.90
2019-02-24T14:59:09.429Z,8.90
2019-02-24T15:01:36.920Z,8.70
2019-02-24T15:04:04.392Z,8.60
2019-02-24T15:06:31.872Z,8.70
2019-02-24T15:08:59.382Z,8.70
2019-02-24T15:11:26.845Z,8.60
2019-02-24T15:13:54.363Z,8.40
2019-02-24T15:16:21.853Z,8.40
2019-02-24T15:18:49.564Z,8.20
2019-02-24T15:21:17.028Z,8.10
2019-02-24T15:23:44.534Z,8.00
2019-02-24T15:26:12.031Z,7.90
2019-02-24T15:28:39.542Z,7.90
2019-02-24T15:31:07.192Z,8.10
2019-02-24T15:33:34.720Z,8.30
2019-02-24T15:36:02.176Z,8.50
2019-02-24T15:38:29.728Z,8.40
2019-02-24T15:40:57.160Z,8.40
2019-02-24T15:43:24.648Z,8.20
2019-02-24T15:45:52.131Z,8.00
2019-02-24T15:48:19.640Z,7.80
2019-02-24T15:50:47.340Z,7.70
2019-02-24T15:53:14.832Z,7.60
2019-02-24T15:55:42.290Z,7.60
2019-02-24T15:58:09.806Z,7.50
2019-02-24T16:00:37.425Z,7.40
2019-02-24T16:03:04.873Z,7.30
2019-02-24T16:05:32.345Z,7.20
2019-02-24T16:07:59.862Z,7.10
2019-02-24T16:10:27.344Z,7.00
2019-02-24T16:12:54.800Z,6.80
2019-02-24T16:15:22.322Z,6.70
2019-02-24T16:17:49.800Z,6.50
2019-02-24T16:20:19.603Z,6.30
2019-02-24T16:22:47.132Z,6.20
2019-02-24T16:25:14.592Z,6.00
2019-02-24T16:27:42.083Z,5.80
2019-02-24T16:30:10.593Z,5.50
2019-02-24T16:32:38.117Z,5.20
2019-02-24T16:35:06.814Z,5.00
2019-02-24T16:37:34.264Z,4.90
2019-02-24T16:40:01.751Z,4.70
2019-02-24T16:42:29.276Z,4.50
2019-02-24T16:44:56.783Z,4.30
2019-02-24T16:47:24.305Z,4.20
2019-02-24T16:53:41.771Z,4.00
2019-02-24T16:56:40.485Z,3.90
2019-02-24T16:59:08.071Z,3.90
2019-02-24T17:01:35.509Z,3.80
2019-02-24T17:04:03.050Z,3.80
2019-02-24T17:06:30.516Z,3.90
2019-02-24T17:09:00.630Z,3.90
2019-02-24T17:11:27.342Z,3.90
2019-02-24T17:13:54.872Z,3.80
2019-02-24T17:16:22.386Z,3.80
2019-02-24T17:18:49.913Z,3.70
2019-02-24T17:21:17.484Z,3.60
2019-02-24T17:23:49.929Z,3.60
2019-02-24T17:26:14.276Z,3.60
2019-02-24T17:28:41.766Z,3.40
2019-02-24T17:31:09.304Z,3.30
2019-02-24T17:33:36.771Z,3.10
2019-02-24T17:36:04.309Z,3.00
2019-02-24T17:38:32.093Z,2.80
2019-02-24T17:40:59.622Z,2.60
2019-02-24T17:43:27.129Z,2.50
2019-02-24T17:45:54.650Z,2.30
2019-02-24T17:48:22.151Z,2.20
2019-02-24T17:50:49.665Z,2.00
2019-02-24T17:53:17.184Z,2.00
2019-02-24T17:55:44.637Z,1.90
2019-02-24T17:58:12.139Z,1.90
2019-02-24T18:00:48.059Z,1.80
2019-02-24T18:03:15.536Z,1.80
2019-02-24T18:05:43.048Z,1.90
2019-02-24T18:08:10.567Z,1.70
2019-02-24T18:10:38.096Z,1.70
2019-02-24T18:13:05.623Z,1.50
2019-02-24T18:15:33.136Z,1.50
2019-02-24T18:18:00.627Z,1.50
2019-02-24T18:20:28.171Z,1.40
2019-02-24T18:22:55.691Z,1.40
2019-02-24T18:25:23.157Z,1.40
2019-02-24T18:27:50.652Z,1.20
2019-02-24T18:30:20.213Z,1.20
2019-02-24T18:32:47.751Z,1.10
2019-02-24T18:35:15.236Z,1.00
2019-02-24T18:37:42.819Z,1.00
2019-02-24T18:40:10.513Z,0.90
2019-02-24T18:42:39.494Z,0.80
2019-02-24T18:45:07.926Z,0.80
2019-02-24T18:47:35.420Z,0.70
2019-02-24T18:50:03.026Z,0.60
2019-02-24T18:52:30.600Z,0.40
2019-02-24T18:54:58.157Z,0.30
2019-02-24T18:57:25.718Z,0.10
2019-02-24T18:59:53.628Z,0.00
2019-02-24T19:02:21.122Z,0.10
2019-02-24T19:04:49.235Z,0.20
2019-02-24T19:07:16.773Z,0.20
2019-02-24T19:09:44.432Z,0.20
2019-02-24T19:12:11.939Z,0.10
2019-02-24T19:14:39.453Z,0.10
2019-02-24T19:17:06.966Z,0.00
2019-02-24T19:19:34.434Z,-0.10
2019-02-24T19:22:01.942Z,-0.20
2019-02-24T19:24:29.414Z,-0.30
2019-02-24T19:26:56.894Z,-0.40
2019-02-24T19:29:24.441Z,-0.40
2019-02-24T19:31:51.957Z,-0.40
2019-02-24T19:34:19.488Z,-0.30
2019-02-24T19:36:48.561Z,-0.30
2019-02-24T19:39:16.138Z,-0.30
2019-02-24T19:41:43.696Z,-0.30
2019-02-24T19:44:11.174Z,-0.40
2019-02-24T19:46:38.677Z,-0.40
2019-02-24T19:49:06.444Z,-0.50
2019-02-24T19:51:33.946Z,-0.50
2019-02-24T19:54:01.470Z,-0.50
2019-02-24T19:56:29.003Z,-0.50
2019-02-24T19:58:56.477Z,-0.60
2019-02-24T20:01:24.062Z,-0.60
2019-02-24T20:03:51.553Z,-0.60
2019-02-24T20:06:19.088Z,-0.60
2019-02-24T20:08:46.565Z,-0.70
2019-02-24T20:11:14.036Z,-0.70
2019-02-24T20:13:41.547Z,-0.70
2019-02-24T20:16:10.459Z,-0.80
2019-02-24T20:18:38.426Z,-0.80
2019-02-24T20:21:26.194Z,-0.90
2019-02-24T20:23:53.716Z,-1.00
2019-02-24T20:26:21.267Z,-1.00
2019-02-24T20:28:48.785Z,-1.00
2019-02-24T20:31:16.386Z,-1.10
2019-02-24T20:33:43.867Z,-1.00
2019-02-24T20:36:11.843Z,-0.90
2019-02-24T20:38:39.430Z,-1.00
2019-02-24T20:41:06.924Z,-1.00
2019-02-24T20:43:34.489Z,-1.10
2019-02-24T20:46:02.273Z,-1.20
2019-02-24T20:48:29.802Z,-1.30
2019-02-24T20:50:57.343Z,-1.30
2019-02-24T20:53:24.841Z,-1.20
2019-02-24T20:55:52.408Z,-0.70
2019-02-24T20:58:19.914Z,-0.70
2019-02-24T21:00:47.464Z,-1.40
2019-02-24T21:03:18.225Z,-1.50
2019-02-24T21:05:45.742Z,-1.40
2019-02-24T21:08:13.255Z,-1.50
2019-02-24T21:10:40.775Z,-1.50
2019-02-24T21:13:08.313Z,-1.60
2019-02-24T21:15:35.847Z,-1.60
2019-02-24T21:18:03.393Z,-1.00
2019-02-24T21:20:30.922Z,-0.10
2019-02-24T21:22:58.480Z,-1.20
2019-02-24T21:25:26.084Z,-1.60
2019-02-24T21:27:53.571Z,-1.70
2019-02-24T21:30:21.212Z,-1.60
2019-02-24T21:32:48.719Z,-1.60
2019-02-24T21:35:17.345Z,-1.60
2019-02-24T21:37:45.277Z,-1.60
2019-02-24T21:40:13.048Z,-1.70
2019-02-24T21:42:41.445Z,-0.90
2019-02-24T21:45:11.685Z,-1.80
2019-02-24T21:47:39.173Z,-1.80
2019-02-24T21:50:07.238Z,-1.80
2019-02-24T21:52:34.736Z,-1.40
2019-02-24T21:55:02.262Z,-1.70
2019-02-24T21:57:29.852Z,0.00
2019-02-24T21:59:57.396Z,-1.60
2019-02-24T22:02:25.182Z,-1.10
2019-02-24T22:04:52.712Z,-0.10
2019-02-24T22:07:20.263Z,-1.40
2019-02-24T22:09:48.015Z,-1.50
2019-02-24T22:12:15.558Z,-1.60
2019-02-24T22:14:43.077Z,0.00
2019-02-24T22:17:10.893Z,-1.70
2019-02-24T22:19:38.471Z,-1.70
2019-02-24T22:22:06.032Z,-1.30
2019-02-24T22:24:33.622Z,-1.70
2019-02-24T22:27:01.204Z,0.00
2019-02-24T22:29:28.758Z,-1.60
2019-02-24T22:31:56.374Z,-1.30
2019-02-24T22:34:23.950Z,-1.60
2019-02-24T22:36:51.464Z,-1.80
2019-02-24T22:39:19.000Z,-1.80
2019-02-24T22:41:46.561Z,-0.80
2019-02-24T22:44:14.154Z,-1.60
2019-02-24T22:46:41.698Z,-2.10
2019-02-24T22:49:09.299Z,-2.00
2019-02-24T22:51:36.848Z,-1.50
2019-02-24T22:54:04.382Z,-2.20
2019-02-24T22:56:31.952Z,-2.30
2019-02-24T22:58:59.522Z,-2.20
2019-02-24T23:01:31.508Z,-1.90
2019-02-24T23:04:06.223Z,-1.30
2019-02-24T23:06:33.790Z,-2.10
2019-02-24T23:09:01.329Z,-0.40
2019-02-24T23:11:29.462Z,-1.80
2019-02-24T23:13:57.037Z,-2.00
2019-02-24T23:16:24.611Z,-1.10
2019-02-24T23:18:52.174Z,-2.20
2019-02-24T23:21:19.703Z,-2.30
2019-02-24T23:23:47.243Z,-2.50
2019-02-24T23:26:14.861Z,-0.60
2019-02-24T23:28:42.377Z,-2.40
2019-02-24T23:31:10.163Z,-2.60
2019-02-24T23:33:37.727Z,-1.30
2019-02-24T23:36:05.259Z,-2.70
2019-02-24T23:38:33.076Z,-2.60
2019-02-24T23:41:00.657Z,-1.30
2019-02-24T23:43:28.201Z,-2.80
2019-02-24T23:45:55.737Z,-1.10
2019-02-24T23:48:23.273Z,-2.60
2019-02-24T23:50:50.831Z,-2.90
2019-02-24T23:53:18.362Z,-1.00
2019-02-24T23:55:45.931Z,-2.90
2019-02-24T23:58:13.443Z,-2.50
